createdAt,value
2018-08-12T00:00:56.189Z,425.47
2018-08-12T00:03:24.812Z,412.97
2018-08-12T00:05:53.316Z,417.57
2018-08-12T00:08:21.840Z,433.20
2018-08-12T00:10:50.384Z,432.40
2018-08-12T00:13:18.915Z,410.50
2018-08-12T00:15:47.499Z,418.83
2018-08-12T00:18:16.025Z,423.53
2018-08-12T00:20:44.624Z,429.17
2018-08-12T00:23:13.125Z,441.67
2018-08-12T00:25:41.725Z,459.07
2018-08-12T00:28:10.241Z,471.47
2018-08-12T00:30:38.808Z,460.10
2018-08-12T00:33:07.308Z,438.73
2018-08-12T00:35:35.868Z,441.90
2018-08-12T00:38:04.427Z,443.63
2018-08-12T00:40:32.952Z,444.67
2018-08-12T00:43:01.592Z,445.10
2018-08-12T00:45:30.126Z,468.07
2018-08-12T00:47:58.700Z,461.80
2018-08-12T00:50:27.241Z,442.73
2018-08-12T00:52:55.812Z,455.27
2018-08-12T00:55:24.366Z,457.30
2018-08-12T00:57:52.899Z,459.50
2018-08-12T01:00:22.689Z,451.63
2018-08-12T01:02:51.236Z,470.17
2018-08-12T01:05:20.207Z,491.07
2018-08-12T01:07:49.840Z,470.73
2018-08-12T01:10:19.060Z,490.47
2018-08-12T01:12:47.704Z,509.93
2018-08-12T01:15:18.494Z,506.03
2018-08-12T01:17:47.308Z,523.13
2018-08-12T01:20:25.428Z,524.20
2018-08-12T01:22:53.997Z,510.20
2018-08-12T01:25:23.000Z,501.40
2018-08-12T01:27:51.540Z,486.53
2018-08-12T01:30:21.264Z,501.67
2018-08-12T01:32:50.189Z,510.47
2018-08-12T01:35:19.087Z,494.23
2018-08-12T01:37:48.310Z,494.97
2018-08-12T01:40:17.955Z,505.27
2018-08-12T01:42:46.799Z,496.27
2018-08-12T01:45:17.985Z,488.93
2018-08-12T01:47:46.596Z,501.97
2018-08-12T01:50:16.471Z,512.10
2018-08-12T01:52:45.018Z,506.90
2018-08-12T01:55:13.568Z,500.00
2018-08-12T01:57:42.111Z,513.10
2018-08-12T02:00:14.258Z,516.77
2018-08-12T02:02:42.834Z,507.90
2018-08-12T02:05:11.337Z,503.40
2018-08-12T02:07:39.922Z,506.57
2018-08-12T02:10:09.716Z,491.90
2018-08-12T02:12:38.314Z,431.50
2018-08-12T02:15:07.768Z,417.93
2018-08-12T02:17:36.297Z,429.83
2018-08-12T02:20:05.868Z,437.47
2018-08-12T02:22:34.495Z,422.77
2018-08-12T02:25:10.288Z,425.03
2018-08-12T02:27:38.906Z,421.47
2018-08-12T02:30:09.306Z,448.97
2018-08-12T02:32:37.828Z,455.40
2018-08-12T02:35:06.483Z,497.97
2018-08-12T02:37:35.048Z,546.10
2018-08-12T02:40:04.992Z,538.43
2018-08-12T02:42:33.568Z,533.90
2018-08-12T02:45:02.164Z,467.07
2018-08-12T02:47:30.684Z,428.33
2018-08-12T02:49:59.236Z,443.83
2018-08-12T02:52:27.822Z,438.73
2018-08-12T02:54:56.375Z,449.13
2018-08-12T02:57:24.861Z,478.50
2018-08-12T02:59:53.407Z,524.60
2018-08-12T03:02:21.956Z,506.87
2018-08-12T03:04:50.517Z,462.90
2018-08-12T03:07:19.109Z,420.67
2018-08-12T03:09:47.641Z,424.37
2018-08-12T03:12:16.193Z,403.30
2018-08-12T03:14:44.753Z,420.57
2018-08-12T03:17:13.374Z,435.20
2018-08-12T03:19:41.853Z,442.37
2018-08-12T03:22:10.402Z,445.40
2018-08-12T03:24:39.184Z,440.53
2018-08-12T03:27:07.824Z,432.97
2018-08-12T03:29:36.344Z,424.00
2018-08-12T03:32:04.896Z,413.40
2018-08-12T03:34:33.448Z,383.50
2018-08-12T03:37:02.269Z,385.07
2018-08-12T03:39:30.812Z,342.67
2018-08-12T03:41:59.365Z,313.80
2018-08-12T03:44:27.871Z,307.27
2018-08-12T03:46:56.437Z,316.73
2018-08-12T03:49:24.964Z,301.67
2018-08-12T03:51:53.532Z,318.47
2018-08-12T03:54:22.074Z,342.33
2018-08-12T03:56:50.643Z,355.83
2018-08-12T03:59:19.196Z,350.43
2018-08-12T04:01:47.708Z,373.20
2018-08-12T04:04:16.248Z,404.83
2018-08-12T04:06:44.951Z,384.97
2018-08-12T04:09:13.486Z,396.73
2018-08-12T04:11:42.070Z,400.70
2018-08-12T04:14:10.550Z,398.83
2018-08-12T04:16:39.108Z,396.60
2018-08-12T04:19:07.685Z,403.80
2018-08-12T04:21:36.251Z,420.33
2018-08-12T04:24:04.764Z,414.17
2018-08-12T04:26:33.327Z,414.37
2018-08-12T04:29:01.800Z,401.43
2018-08-12T04:31:30.347Z,430.17
2018-08-12T04:33:58.864Z,418.13
2018-08-12T04:36:27.416Z,446.13
2018-08-12T04:38:55.932Z,446.97
2018-08-12T04:41:24.667Z,416.73
2018-08-12T04:43:53.246Z,416.33
2018-08-12T04:46:21.716Z,421.13
2018-08-12T04:48:50.270Z,423.33
2018-08-12T04:51:18.805Z,427.70
2018-08-12T04:53:47.324Z,437.90
2018-08-12T04:56:15.860Z,441.77
2018-08-12T04:58:44.337Z,436.93
2018-08-12T05:01:12.915Z,438.73
2018-08-12T05:03:41.441Z,461.93
2018-08-12T05:06:10.003Z,478.43
2018-08-12T05:08:38.504Z,490.33
2018-08-12T05:11:07.036Z,482.47
2018-08-12T05:13:35.558Z,513.93
2018-08-12T05:16:04.159Z,506.20
2018-08-12T05:18:32.693Z,514.73
2018-08-12T05:21:01.193Z,518.33
2018-08-12T05:23:29.720Z,549.57
2018-08-12T05:25:58.230Z,584.07
2018-08-12T05:28:26.804Z,540.37
2018-08-12T05:30:55.322Z,509.97
2018-08-12T05:33:23.849Z,490.07
2018-08-12T05:35:52.419Z,440.17
2018-08-12T05:38:20.944Z,470.70
2018-08-12T05:40:49.515Z,476.90
2018-08-12T05:43:18.079Z,493.03
2018-08-12T05:45:46.571Z,489.47
2018-08-12T05:48:15.113Z,487.23
2018-08-12T05:50:43.631Z,490.07
2018-08-12T05:53:12.208Z,494.73
2018-08-12T05:55:40.706Z,494.53
2018-08-12T05:58:09.264Z,482.63
2018-08-12T06:00:37.835Z,485.13
2018-08-12T06:03:06.392Z,474.13
2018-08-12T06:05:34.960Z,477.77
2018-08-12T06:08:03.448Z,476.77
2018-08-12T06:10:32.043Z,468.57
2018-08-12T06:13:00.563Z,482.83
2018-08-12T06:15:29.144Z,506.77
2018-08-12T06:17:57.644Z,542.33
2018-08-12T06:20:26.209Z,533.10
2018-08-12T06:22:54.757Z,545.07
2018-08-12T06:25:23.341Z,555.80
2018-08-12T06:27:51.828Z,484.20
2018-08-12T06:30:20.407Z,478.00
2018-08-12T06:32:48.915Z,422.57
2018-08-12T06:35:17.476Z,371.83
2018-08-12T06:37:46.018Z,303.97
2018-08-12T06:40:15.084Z,283.70
2018-08-12T06:42:44.999Z,251.57
2018-08-12T06:45:16.201Z,203.17
2018-08-12T06:47:45.933Z,186.97
2018-08-12T06:50:14.463Z,166.90
2018-08-12T06:52:43.075Z,152.20
2018-08-12T06:55:12.737Z,142.10
2018-08-12T06:57:42.337Z,128.57
2018-08-12T07:00:12.763Z,137.70
2018-08-12T07:02:41.318Z,131.23
2018-08-12T07:05:10.862Z,139.40
2018-08-12T07:07:39.432Z,137.17
2018-08-12T07:10:10.666Z,146.23
2018-08-12T07:12:39.302Z,144.57
2018-08-12T07:15:11.397Z,161.97
2018-08-12T07:17:40.600Z,205.73
2018-08-12T07:20:11.104Z,218.93
2018-08-12T07:22:39.960Z,248.43
2018-08-12T07:25:09.835Z,283.53
2018-08-12T07:27:38.942Z,311.33
2018-08-12T07:30:09.266Z,310.63
2018-08-12T07:32:37.796Z,298.90
2018-08-12T07:35:07.089Z,294.97
2018-08-12T07:37:35.581Z,252.93
2018-08-12T07:40:05.954Z,172.83
2018-08-12T07:42:34.463Z,153.10
2018-08-12T07:45:03.048Z,148.60
2018-08-12T07:47:31.612Z,114.80
2018-08-12T07:50:00.121Z,124.07
2018-08-12T07:52:28.669Z,91.50
2018-08-12T07:54:57.253Z,97.43
2018-08-12T07:57:25.879Z,86.27
2018-08-12T07:59:54.379Z,78.70
2018-08-12T08:02:23.113Z,64.77
2018-08-12T08:04:51.639Z,59.80
2018-08-12T08:07:20.184Z,54.17
2018-08-12T08:09:48.785Z,51.90
2018-08-12T08:12:17.318Z,50.03
2018-08-12T08:14:45.864Z,45.87
2018-08-12T08:17:14.412Z,47.20
2018-08-12T08:19:43.027Z,42.20
2018-08-12T08:22:11.576Z,44.07
2018-08-12T08:24:40.098Z,42.03
2018-08-12T08:27:08.608Z,42.00
2018-08-12T08:29:37.192Z,41.20
2018-08-12T08:32:05.760Z,40.33
2018-08-12T08:34:34.228Z,40.97
2018-08-12T08:37:02.884Z,45.60
2018-08-12T08:39:31.400Z,41.23
2018-08-12T08:42:00.007Z,43.67
2018-08-12T08:44:28.576Z,44.00
2018-08-12T08:46:57.168Z,42.17
2018-08-12T08:49:25.764Z,38.30
2018-08-12T08:51:54.302Z,41.00
2018-08-12T08:54:22.872Z,40.97
2018-08-12T08:56:51.359Z,38.77
2018-08-12T08:59:19.955Z,37.77
2018-08-12T09:01:48.507Z,40.27
2018-08-12T09:04:17.049Z,40.73
2018-08-12T09:06:45.639Z,43.23
2018-08-12T09:09:15.949Z,46.67
2018-08-12T09:11:44.841Z,56.40
2018-08-12T09:14:13.422Z,53.70
2018-08-12T09:16:42.064Z,58.63
2018-08-12T09:19:10.599Z,60.03
2018-08-12T09:21:39.132Z,55.80
2018-08-12T09:24:07.841Z,56.80
2018-08-12T09:26:36.372Z,54.80
2018-08-12T09:29:04.904Z,61.33
2018-08-12T09:31:33.444Z,58.00
2018-08-12T09:34:01.961Z,72.63
2018-08-12T09:36:30.548Z,74.00
2018-08-12T09:38:59.050Z,86.13
2018-08-12T09:41:27.872Z,100.13
2018-08-12T09:43:56.381Z,96.63
2018-08-12T09:46:24.921Z,94.60
2018-08-12T09:48:53.779Z,101.37
2018-08-12T09:51:22.354Z,93.80
2018-08-12T09:53:50.911Z,96.67
2018-08-12T09:56:19.473Z,84.80
2018-08-12T09:58:47.988Z,80.93
2018-08-12T10:01:16.529Z,75.63
2018-08-12T10:03:45.074Z,65.40
2018-08-12T10:06:13.641Z,73.03
2018-08-12T10:08:42.142Z,71.70
2018-08-12T10:11:10.724Z,80.50
2018-08-12T10:13:39.256Z,76.50
2018-08-12T10:16:07.910Z,93.07
2018-08-12T10:18:36.493Z,101.10
2018-08-12T10:21:05.101Z,123.20
2018-08-12T10:23:33.673Z,119.60
2018-08-12T10:26:02.224Z,119.10
2018-08-12T10:28:30.762Z,116.40
2018-08-12T10:30:59.320Z,110.97
2018-08-12T10:33:28.125Z,103.87
2018-08-12T10:35:56.626Z,116.67
2018-08-12T10:38:25.173Z,117.47
2018-08-12T10:40:53.674Z,115.00
2018-08-12T10:43:22.204Z,107.33
2018-08-12T10:45:50.727Z,90.17
2018-08-12T10:48:19.301Z,86.90
2018-08-12T10:50:47.824Z,92.57
2018-08-12T10:53:17.053Z,87.17
2018-08-12T10:55:45.706Z,95.20
2018-08-12T10:58:14.632Z,113.60
2018-08-12T11:00:43.260Z,131.27
2018-08-12T11:03:11.856Z,124.43
2018-08-12T11:05:40.428Z,141.77
2018-08-12T11:08:09.050Z,130.20
2018-08-12T11:10:37.633Z,139.17
2018-08-12T11:13:06.260Z,130.27
2018-08-12T11:15:34.781Z,151.27
2018-08-12T11:18:03.377Z,115.83
2018-08-12T11:20:31.972Z,112.17
2018-08-12T11:23:00.515Z,87.20
2018-08-12T11:25:29.280Z,96.50
2018-08-12T11:27:57.808Z,97.47
2018-08-12T11:30:26.306Z,74.07
2018-08-12T11:32:54.845Z,91.97
2018-08-12T12:50:05.684Z,121.77
2018-08-12T12:52:34.220Z,129.17
2018-08-12T12:55:02.792Z,117.50
2018-08-12T12:57:31.312Z,116.77
2018-08-12T12:59:59.860Z,103.53
2018-08-12T13:02:29.778Z,88.67
2018-08-12T13:04:58.763Z,74.73
2018-08-12T13:07:27.341Z,62.07
2018-08-12T13:09:55.864Z,57.30
2018-08-12T13:12:24.425Z,57.27
2018-08-12T13:14:52.936Z,63.67
2018-08-12T13:17:21.480Z,62.73
2018-08-12T13:19:50.057Z,63.23
2018-08-12T13:22:18.731Z,71.80
2018-08-12T13:24:47.687Z,81.87
2018-08-12T13:27:16.269Z,72.27
2018-08-12T13:29:44.831Z,56.83
2018-08-12T13:32:13.413Z,58.10
2018-08-12T13:34:41.912Z,64.10
2018-08-12T13:37:10.435Z,69.90
2018-08-12T13:39:38.981Z,74.63
2018-08-12T13:42:07.504Z,79.83
2018-08-12T13:44:36.032Z,77.10
2018-08-12T13:47:04.604Z,90.03
2018-08-12T13:49:33.172Z,94.40
2018-08-12T13:52:02.279Z,103.63
2018-08-12T13:54:30.892Z,102.63
2018-08-12T13:56:59.435Z,98.53
2018-08-12T13:59:28.018Z,95.90
2018-08-12T14:01:56.851Z,80.53
2018-08-12T14:04:25.448Z,72.73
2018-08-12T14:06:54.692Z,73.07
2018-08-12T14:09:24.805Z,67.03
2018-08-12T14:11:53.412Z,62.20
2018-08-12T14:14:23.205Z,69.97
2018-08-12T14:16:56.593Z,72.80
2018-08-12T14:19:29.021Z,80.23
2018-08-12T14:21:59.599Z,81.30
2018-08-12T14:24:30.540Z,78.10
2018-08-12T14:27:08.368Z,85.10
2018-08-12T14:29:43.187Z,84.90
2018-08-12T14:32:13.181Z,71.60
2018-08-12T14:34:43.438Z,80.87
2018-08-12T14:37:13.687Z,80.17
2018-08-12T14:39:44.861Z,82.73
2018-08-12T14:42:15.423Z,83.47
2018-08-12T14:44:45.627Z,79.07
2018-08-12T14:47:15.923Z,84.67
2018-08-12T14:49:46.415Z,91.97
2018-08-12T14:52:16.625Z,99.03
2018-08-12T14:54:48.048Z,102.33
2018-08-12T14:57:18.434Z,114.13
2018-08-12T14:59:49.480Z,113.07
2018-08-12T15:02:20.287Z,122.97
2018-08-12T15:04:50.300Z,111.73
2018-08-12T15:07:22.122Z,106.70
2018-08-12T15:09:53.375Z,114.80
2018-08-12T15:12:24.246Z,119.63
2018-08-12T15:14:54.569Z,97.47
2018-08-12T15:17:25.570Z,109.07
2018-08-12T15:19:57.326Z,111.97
2018-08-12T15:22:28.191Z,107.73
2018-08-12T15:24:59.019Z,103.70
2018-08-12T15:27:29.478Z,106.10
2018-08-12T15:29:59.572Z,92.33
2018-08-12T15:32:29.696Z,96.20
2018-08-12T15:35:02.000Z,89.73
2018-08-12T15:37:32.527Z,89.77
2018-08-12T15:40:04.061Z,94.00
2018-08-12T15:42:36.609Z,94.97
2018-08-12T15:45:09.138Z,98.53
2018-08-12T15:47:40.329Z,92.37
2018-08-12T15:50:10.029Z,92.13
2018-08-12T15:52:38.973Z,86.47
2018-08-12T15:55:08.115Z,90.87
2018-08-12T15:57:36.795Z,89.27
2018-08-12T16:00:09.124Z,79.03
2018-08-12T16:02:37.979Z,81.77
2018-08-12T16:05:06.660Z,82.77
2018-08-12T16:07:35.184Z,87.60
2018-08-12T16:10:04.034Z,75.37
2018-08-12T16:12:32.617Z,73.40
2018-08-12T16:15:01.116Z,70.53
2018-08-12T16:17:29.668Z,66.37
2018-08-12T16:19:58.208Z,60.53
2018-08-12T16:22:26.732Z,53.57
2018-08-12T16:24:55.280Z,52.70
2018-08-12T16:27:23.864Z,57.00
2018-08-12T16:29:52.412Z,62.17
2018-08-12T16:32:20.955Z,56.97
2018-08-12T16:34:49.501Z,50.53
2018-08-12T16:37:18.046Z,54.53
2018-08-12T16:39:46.622Z,55.07
2018-08-12T16:42:15.163Z,56.27
2018-08-12T16:44:43.662Z,55.97
2018-08-12T16:47:12.272Z,59.87
2018-08-12T16:49:40.798Z,69.30
2018-08-12T16:52:09.317Z,66.83
2018-08-12T16:54:37.833Z,76.97
2018-08-12T16:57:06.476Z,85.33
2018-08-12T16:59:35.016Z,81.83
2018-08-12T17:02:03.573Z,83.00
2018-08-12T17:04:32.150Z,76.10
2018-08-12T17:07:00.685Z,74.10
2018-08-12T17:09:29.196Z,89.87
2018-08-12T17:11:57.736Z,87.47
2018-08-12T17:14:26.238Z,88.10
2018-08-12T17:16:54.737Z,88.43
2018-08-12T17:19:23.283Z,83.07
2018-08-12T17:21:51.778Z,82.80
2018-08-12T17:24:20.343Z,78.73
2018-08-12T17:26:48.991Z,72.80
2018-08-12T17:29:17.487Z,68.97
2018-08-12T17:31:46.025Z,63.97
2018-08-12T17:34:14.511Z,64.10
2018-08-12T17:36:43.068Z,52.43
2018-08-12T17:39:11.933Z,51.87
2018-08-12T17:41:40.508Z,54.40
2018-08-12T17:44:09.076Z,60.03
2018-08-12T17:46:37.628Z,66.27
2018-08-12T17:49:06.108Z,77.30
2018-08-12T17:51:34.631Z,76.13
2018-08-12T17:54:03.196Z,99.30
2018-08-12T17:56:31.820Z,122.30
2018-08-12T17:59:00.362Z,139.40
2018-08-12T18:01:28.959Z,156.20
2018-08-12T18:03:57.522Z,149.83
2018-08-12T18:06:26.019Z,142.07
2018-08-12T18:08:54.591Z,133.20
2018-08-12T18:11:23.139Z,129.07
2018-08-12T18:13:51.715Z,143.73
2018-08-12T18:16:20.308Z,139.47
2018-08-12T18:18:48.820Z,149.37
2018-08-12T18:21:17.376Z,150.63
2018-08-12T18:23:45.871Z,161.50
2018-08-12T18:26:14.455Z,171.27
2018-08-12T18:28:43.002Z,168.43
2018-08-12T18:31:11.575Z,175.67
2018-08-12T18:33:40.089Z,186.23
2018-08-12T18:36:08.580Z,185.13
2018-08-12T18:38:37.261Z,195.03
2018-08-12T18:41:05.813Z,202.30
2018-08-12T18:43:34.274Z,213.97
2018-08-12T18:46:02.793Z,211.57
2018-08-12T18:48:31.312Z,203.17
2018-08-12T18:50:59.847Z,219.13
2018-08-12T18:53:28.372Z,208.97
2018-08-12T18:55:56.863Z,197.53
2018-08-12T18:58:25.383Z,198.33
2018-08-12T19:00:53.913Z,205.33
2018-08-12T19:03:22.432Z,192.60
2018-08-12T19:05:50.916Z,197.43
2018-08-12T19:08:19.461Z,195.90
2018-08-12T19:10:47.943Z,201.87
2018-08-12T19:13:16.457Z,193.47
2018-08-12T19:15:45.030Z,197.33
2018-08-12T19:18:13.620Z,194.20
2018-08-12T19:20:42.179Z,195.87
2018-08-12T19:23:10.663Z,181.40
2018-08-12T19:25:39.191Z,183.33
2018-08-12T19:28:07.794Z,175.73
2018-08-12T19:30:36.337Z,181.73
2018-08-12T19:33:04.915Z,186.40
2018-08-12T19:35:33.468Z,176.53
2018-08-12T19:38:02.034Z,173.77
2018-08-12T19:40:30.880Z,166.67
2018-08-12T19:42:59.510Z,147.00
2018-08-12T19:45:28.040Z,148.37
2018-08-12T19:47:56.568Z,151.30
2018-08-12T19:50:25.093Z,153.63
2018-08-12T19:52:53.629Z,160.83
2018-08-12T19:55:22.143Z,159.33
2018-08-12T19:57:50.750Z,164.97
2018-08-12T20:00:19.283Z,161.67
2018-08-12T20:02:47.825Z,172.80
2018-08-12T20:05:16.326Z,165.47
2018-08-12T20:07:45.451Z,162.60
2018-08-12T20:10:13.990Z,155.67
2018-08-12T20:12:42.534Z,167.17
2018-08-12T20:15:11.909Z,172.73
2018-08-12T20:17:40.896Z,161.60
2018-08-12T20:20:11.399Z,169.63
2018-08-12T20:22:40.036Z,161.50
2018-08-12T20:25:08.807Z,176.87
2018-08-12T20:27:37.382Z,172.27
2018-08-12T20:30:07.815Z,178.47
2018-08-12T20:32:36.364Z,181.07
2018-08-12T20:35:05.191Z,173.37
2018-08-12T20:37:33.718Z,181.90
2018-08-12T20:40:02.739Z,186.10
2018-08-12T20:42:31.300Z,172.37
2018-08-12T20:44:59.915Z,171.50
2018-08-12T20:47:28.489Z,170.00
2018-08-12T20:49:57.092Z,169.27
2018-08-12T20:52:25.622Z,183.03
2018-08-12T20:54:54.093Z,183.53
2018-08-12T20:57:22.640Z,191.17
2018-08-12T20:59:55.576Z,184.60
2018-08-12T21:02:24.110Z,188.63
2018-08-12T21:04:52.599Z,192.77
2018-08-12T21:07:21.149Z,194.33
2018-08-12T21:09:49.634Z,206.47
2018-08-12T21:12:18.338Z,198.00
2018-08-12T21:14:46.854Z,213.87
2018-08-12T21:17:15.887Z,204.37
2018-08-12T21:19:44.511Z,212.20
2018-08-12T21:22:13.097Z,212.77
2018-08-12T21:24:41.637Z,215.40
2018-08-12T21:27:10.160Z,216.90
2018-08-12T21:29:38.875Z,215.23
2018-08-12T21:32:07.534Z,218.60
2018-08-12T21:34:36.098Z,213.60
2018-08-12T21:37:04.724Z,213.67
2018-08-12T21:39:33.327Z,211.03
2018-08-12T21:42:01.853Z,219.60
2018-08-12T21:44:30.507Z,217.80
2018-08-12T21:46:59.010Z,223.77
2018-08-12T21:49:27.588Z,225.37
2018-08-12T21:51:56.172Z,227.43
2018-08-12T21:54:26.635Z,229.47
2018-08-12T21:56:55.302Z,229.17
2018-08-12T21:59:23.937Z,227.63
2018-08-12T22:01:54.120Z,229.03
2018-08-12T22:04:23.469Z,223.20
2018-08-12T22:06:52.406Z,232.13
2018-08-12T22:09:21.008Z,232.30
2018-08-12T22:11:49.497Z,221.50
2018-08-12T22:14:18.151Z,229.73
2018-08-12T22:16:46.697Z,236.00
2018-08-12T22:19:15.355Z,224.37
2018-08-12T22:21:43.865Z,233.30
2018-08-12T22:24:12.431Z,235.43
2018-08-12T22:26:42.453Z,217.00
2018-08-12T22:29:11.055Z,226.50
2018-08-12T22:31:39.667Z,227.43
2018-08-12T22:34:09.080Z,212.60
2018-08-12T22:36:37.901Z,216.40
2018-08-12T22:39:08.022Z,206.27
2018-08-12T22:41:36.560Z,195.40
2018-08-12T22:44:05.205Z,195.90
2018-08-12T22:46:33.824Z,185.03
2018-08-12T22:49:02.318Z,156.37
2018-08-12T22:51:31.290Z,169.67
2018-08-12T22:53:59.825Z,161.43
2018-08-12T22:56:28.456Z,161.53
2018-08-12T22:58:57.067Z,159.40
2018-08-12T23:01:25.626Z,171.70
2018-08-12T23:03:54.572Z,190.93
2018-08-12T23:06:23.104Z,165.30
2018-08-12T23:08:51.651Z,171.20
2018-08-12T23:11:20.112Z,183.43
2018-08-12T23:13:48.616Z,186.93
2018-08-12T23:16:28.379Z,170.03
2018-08-12T23:18:56.982Z,150.57
2018-08-12T23:21:25.483Z,156.43
2018-08-12T23:23:54.110Z,170.63
2018-08-12T23:26:23.843Z,163.50
2018-08-12T23:28:52.343Z,167.70
2018-08-12T23:31:20.871Z,181.37
2018-08-12T23:33:49.340Z,180.27
2018-08-12T23:36:17.914Z,151.97
2018-08-12T23:38:46.377Z,173.63
2018-08-12T23:41:14.896Z,162.10
2018-08-12T23:43:43.455Z,187.87
2018-08-12T23:46:12.534Z,188.27
2018-08-12T23:48:41.044Z,189.27
2018-08-12T23:51:09.575Z,201.10
2018-08-12T23:53:38.117Z,186.90
2018-08-12T23:56:06.599Z,194.00
2018-08-12T23:58:35.139Z,221.17
